Time;durP1;ratioP1;P1;durP2;ratioP2;P2;SDS_P1;SDS_P2;PMS_P1;PMS_P2;Temp;Humidity;BMP_temperature;BMP_pressure;BME280_temperature;BME280_humidity;BME280_pressure;Samples;Min_cycle;Max_cycle;Signal;HPM_P1;HPM_P2
2024/04/16 00:00:59;;;;;;;1999.90;999.90;;;;;;;5.88;100.00;100077.38;11361011;26;19998;-63
2024/04/16 00:06:02;;;;;;;1999.90;999.90;;;;;;;5.86;100.00;100074.03;11360370;26;20465;-63
2024/04/16 00:11:04;;;;;;;1999.90;999.90;;;;;;;5.91;100.00;100072.03;11360034;26;20009;-63
2024/04/16 00:16:07;;;;;;;1999.90;999.90;;;;;;;5.83;100.00;100069.81;11359936;26;19998;-63
2024/04/16 00:21:09;;;;;;;1999.90;999.90;;;;;;;6.02;100.00;100055.94;11359192;26;20070;-63
2024/04/16 00:26:12;;;;;;;1999.90;999.90;;;;;;;5.96;100.00;100062.28;11357668;26;20017;-62
2024/04/16 00:31:14;;;;;;;1999.90;999.90;;;;;;;6.12;100.00;100059.78;11357187;26;20346;-63
2024/04/16 00:36:17;;;;;;;1999.90;999.90;;;;;;;6.19;100.00;100048.16;11359118;26;19999;-62
2024/04/16 00:41:19;;;;;;;1999.90;999.90;;;;;;;6.45;100.00;100036.38;11358596;26;19994;-63
2024/04/16 00:46:22;;;;;;;1999.90;999.90;;;;;;;6.24;100.00;100019.31;11356795;26;20461;-63
2024/04/16 00:51:25;;;;;;;1999.90;999.90;;;;;;;6.14;100.00;100024.16;11358502;26;20008;-62
2024/04/16 00:56:27;;;;;;;1999.90;999.90;;;;;;;6.08;100.00;100012.28;11356684;26;20355;-62
2024/04/16 01:01:29;;;;;;;1999.90;999.90;;;;;;;6.16;100.00;99995.47;11356468;26;20345;-63
2024/04/16 01:06:33;;;;;;;1999.90;999.90;;;;;;;6.30;100.00;99988.66;11325906;26;20529;-63
2024/04/16 01:11:35;;;;;;;1999.90;999.90;;;;;;;6.21;100.00;99975.28;11355939;26;20006;-63
2024/04/16 01:16:38;;;;;;;1999.90;999.90;;;;;;;6.29;100.00;99973.97;11355794;26;20042;-63
2024/04/16 01:21:40;;;;;;;1999.90;999.90;;;;;;;6.30;100.00;99962.66;11357065;26;20030;-63
2024/04/16 01:26:43;;;;;;;1999.90;999.90;;;;;;;6.38;100.00;99954.44;11357299;26;20012;-62
2024/04/16 01:31:45;;;;;;;1999.90;999.90;;;;;;;6.41;100.00;99951.66;11357173;26;19998;-63
2024/04/16 01:36:48;;;;;;;1999.90;999.90;;;;;;;6.53;100.00;99949.34;11363800;26;19994;-63
2024/04/16 01:41:50;;;;;;;1999.90;999.90;;;;;;;6.43;100.00;99943.78;11362672;26;20006;-63
2024/04/16 01:46:53;;;;;;;1999.90;999.90;;;;;;;6.36;100.00;99943.28;11364084;26;20006;-62
2024/04/16 01:51:55;;;;;;;1999.90;999.90;;;;;;;6.31;100.00;99950.47;11364393;26;20457;-63
2024/04/16 01:56:58;;;;;;;1999.90;999.90;;;;;;;5.89;100.00;99955.19;11364260;26;20340;-62
2024/04/16 02:02:00;;;;;;;1999.90;999.90;;;;;;;5.80;100.00;99954.81;11364136;26;19998;-63
2024/04/16 02:07:03;;;;;;;1999.90;999.90;;;;;;;5.91;100.00;99936.94;11364055;26;19998;-63
2024/04/16 02:12:06;;;;;;;1999.90;999.90;;;;;;;6.00;100.00;99948.63;11363774;26;19994;-63
2024/04/16 02:17:08;;;;;;;1999.90;999.90;;;;;;;6.06;100.00;99932.75;11363299;26;19998;-63
2024/04/16 02:22:11;;;;;;;1999.90;999.90;;;;;;;6.09;100.00;99922.19;11363563;26;19998;-63
2024/04/16 02:27:13;;;;;;;1999.90;999.90;;;;;;;6.17;100.00;99911.38;11363382;26;20002;-63
2024/04/16 02:32:16;;;;;;;1999.90;999.90;;;;;;;5.91;100.00;99911.78;11361872;26;20472;-63
2024/04/16 02:37:18;;;;;;;1999.90;999.90;;;;;;;5.87;100.00;99914.66;11363210;26;20465;-62
2024/04/16 02:42:21;;;;;;;1999.90;999.90;;;;;;;5.92;100.00;99915.25;11362184;26;20013;-62
2024/04/16 02:47:23;;;;;;;1999.90;999.90;;;;;;;5.83;100.00;99923.50;11362229;26;20002;-62
2024/04/16 02:52:26;;;;;;;1999.90;999.90;;;;;;;5.77;100.00;99922.06;11362890;26;20066;-62
2024/04/16 02:57:28;;;;;;;1999.90;999.90;;;;;;;5.50;100.00;99952.88;11362985;26;20002;-61
2024/04/16 03:02:31;;;;;;;1999.90;999.90;;;;;;;5.35;100.00;99939.72;11362553;26;20341;-61
2024/04/16 03:07:33;;;;;;;1999.90;999.90;;;;;;;5.46;100.00;99938.34;11361968;26;20012;-62
2024/04/16 03:12:36;;;;;;;1999.90;999.90;;;;;;;5.58;100.00;99932.53;11361929;26;20009;-62
2024/04/16 03:17:38;;;;;;;1999.90;999.90;;;;;;;5.19;100.00;99920.63;11361835;26;20075;-62
2024/04/16 03:22:41;;;;;;;1999.90;999.90;;;;;;;5.30;100.00;99925.31;11361624;26;20010;-62
2024/04/16 03:27:44;;;;;;;1999.90;999.90;;;;;;;5.14;100.00;99913.06;11361593;26;19998;-62
2024/04/16 03:32:46;;;;;;;1999.90;999.90;;;;;;;5.06;100.00;99909.16;11359614;26;20486;-62
2024/04/16 03:37:49;;;;;;;1999.90;999.90;;;;;;;5.00;100.00;99905.13;11359653;26;19998;-62
2024/04/16 03:42:51;;;;;;;1999.90;999.90;;;;;;;5.34;100.00;99898.28;11361228;26;20006;-63
2024/04/16 03:47:54;;;;;;;1999.90;999.90;;;;;;;5.05;100.00;99902.31;11361247;26;19994;-62
2024/04/16 03:52:56;;;;;;;1999.90;999.90;;;;;;;5.33;100.00;99886.19;11360574;26;20006;-62
2024/04/16 03:57:59;;;;;;;1999.90;999.90;;;;;;;5.22;100.00;99873.78;11359645;26;20456;-62
2024/04/16 04:03:01;;;;;;;1999.90;999.90;;;;;;;4.93;100.00;99872.63;11360472;26;19998;-62
2024/04/16 04:08:04;;;;;;;1999.90;999.90;;;;;;;5.31;100.00;99864.69;11358443;26;20012;-63
2024/04/16 04:13:06;;;;;;;1999.90;999.90;;;;;;;5.42;100.00;99840.78;11358142;26;20468;-62
2024/04/16 04:18:09;;;;;;;1999.90;999.90;;;;;;;5.37;100.00;99836.66;11358231;26;20070;-63
2024/04/16 04:23:13;;;;;;;1999.90;999.90;;;;;;;5.20;100.00;99828.91;11359768;26;20037;-63
2024/04/16 04:28:15;;;;;;;1999.90;999.90;;;;;;;5.29;100.00;99809.41;11359654;26;19998;-63
2024/04/16 04:33:18;;;;;;;1999.90;999.90;;;;;;;5.26;100.00;99805.25;11357523;26;20017;-62
2024/04/16 04:38:22;;;;;;;1999.90;999.90;;;;;;;5.33;100.00;99797.94;11357640;26;20030;-62
2024/04/16 04:43:25;;;;;;;1999.90;999.90;;;;;;;5.49;100.00;99803.19;11357337;26;20367;-62
2024/04/16 04:48:27;;;;;;;1999.90;999.90;;;;;;;5.61;100.00;99789.56;11358592;26;20012;-63
2024/04/16 04:53:30;;;;;;;1999.90;999.90;;;;;;;5.64;100.00;99786.81;11358400;26;19998;-63
2024/04/16 04:58:32;;;;;;;1999.90;999.90;;;;;;;5.74;100.00;99772.41;11358011;26;19998;-63
2024/04/16 05:03:35;;;;;;;1999.90;999.90;;;;;;;5.70;100.00;99776.09;11357982;26;20012;-62
2024/04/16 05:08:37;;;;;;;1999.90;999.90;;;;;;;5.61;100.00;99747.19;11359901;26;20364;-63
2024/04/16 05:13:40;;;;;;;1999.90;999.90;;;;;;;5.67;100.00;99765.03;11363604;26;20009;-62
2024/04/16 05:18:42;;;;;;;1999.90;999.90;;;;;;;5.61;100.00;99744.59;11365629;26;20013;-62
2024/04/16 05:23:48;;;;;;;1999.90;999.90;;;;;;;5.56;100.00;99744.81;11365369;26;20009;-62
2024/04/16 05:28:51;;;;;;;1999.90;999.90;;;;;;;5.39;100.00;99749.16;11364904;26;20006;-62
2024/04/16 05:33:53;;;;;;;1999.90;999.90;;;;;;;5.48;100.00;99747.00;11364351;26;20342;-62
2024/04/16 05:38:55;;;;;;;1999.90;999.90;;;;;;;5.17;100.00;99749.44;11364244;26;19998;-62
2024/04/16 05:43:58;;;;;;;1999.90;999.90;;;;;;;5.28;100.00;99745.44;11364362;26;20349;-63
2024/04/16 05:49:00;;;;;;;1999.90;999.90;;;;;;;5.16;100.00;99736.53;11364170;26;19998;-62
2024/04/16 05:54:06;;;;;;;1999.90;999.90;;;;;;;5.21;100.00;99717.22;11364015;26;20009;-61
2024/04/16 05:59:09;;;;;;;1999.90;999.90;;;;;;;5.40;100.00;99709.31;11364311;26;20035;-61
2024/04/16 06:04:11;;;;;;;1999.90;999.90;;;;;;;5.43;100.00;99700.53;11363739;26;20330;-62
2024/04/16 06:09:14;;;;;;;1999.90;999.90;;;;;;;5.42;100.00;99672.88;11363390;26;19998;-62
2024/04/16 06:14:17;;;;;;;1999.90;999.90;;;;;;;5.33;100.00;99702.78;11363357;26;20334;-62
2024/04/16 06:19:19;;;;;;;1999.90;999.90;;;;;;;5.37;100.00;99708.63;11362837;26;20473;-62
2024/04/16 06:24:21;;;;;;;1999.90;999.90;;;;;;;5.39;100.00;99710.22;11370945;20;20086;-62
2024/04/16 06:29:24;;;;;;;1999.90;999.90;;;;;;;5.64;100.00;99705.47;11361481;26;20038;-62
2024/04/16 06:34:26;;;;;;;1999.90;999.90;;;;;;;5.77;100.00;99694.31;11362880;26;20338;-63
2024/04/16 06:39:29;;;;;;;1999.90;999.90;;;;;;;6.01;100.00;99695.69;11362638;26;20325;-62
2024/04/16 06:44:31;;;;;;;1999.90;999.90;;;;;;;6.09;100.00;99689.13;11362923;26;19998;-62
2024/04/16 06:49:34;;;;;;;1999.90;999.90;;;;;;;6.37;100.00;99691.91;11360735;26;20051;-62
2024/04/16 06:54:37;;;;;;;1999.90;999.90;;;;;;;6.58;100.00;99684.66;11362298;26;20336;-63
2024/04/16 06:59:39;;;;;;;1999.90;999.90;;;;;;;6.70;100.00;99681.31;11330359;26;20329;-62
2024/04/16 07:04:42;;;;;;;1999.90;999.90;;;;;;;6.83;100.00;99703.06;11361983;26;20012;-62
2024/04/16 07:09:44;;;;;;;1999.90;999.90;;;;;;;6.95;100.00;99721.50;11360385;26;19998;-62
2024/04/16 07:14:47;;;;;;;1999.90;999.90;;;;;;;7.33;100.00;99715.72;11361814;26;19998;-62
2024/04/16 07:19:49;;;;;;;1999.90;999.90;;;;;;;7.37;100.00;99722.44;11361144;26;20341;-62
2024/04/16 07:24:54;;;;;;;1999.90;999.90;;;;;;;7.52;100.00;99703.25;11361194;26;20043;-62
2024/04/16 07:29:57;;;;;;;1999.90;999.90;;;;;;;7.48;100.00;99712.22;11360283;26;20337;-63
2024/04/16 07:34:59;;;;;;;1999.90;999.90;;;;;;;7.68;100.00;99721.34;11348756;26;20006;-62
2024/04/16 07:40:03;;;;;;;1999.90;999.90;;;;;;;7.97;100.00;99723.94;11306912;26;20035;-65
2024/04/16 07:45:06;;;;;;;1999.90;999.90;;;;;;;8.18;100.00;99712.09;11333765;26;20056;-65
2024/04/16 07:50:08;;;;;;;1999.90;999.90;;;;;;;8.09;100.00;99719.69;11291007;26;20449;-66
2024/04/16 07:55:11;;;;;;;1999.90;999.90;;;;;;;8.44;100.00;99722.66;11353049;26;20034;-62
2024/04/16 08:00:14;;;;;;;1999.90;999.90;;;;;;;8.17;100.00;99733.91;11349737;26;20448;-63
2024/04/16 08:05:16;;;;;;;1999.90;999.90;;;;;;;8.16;100.00;99742.66;11304964;26;20415;-63
2024/04/16 08:10:19;;;;;;;1999.90;999.90;;;;;;;8.08;100.00;99744.09;11332302;26;20002;-65
2024/04/16 08:15:22;;;;;;;1999.90;999.90;;;;;;;8.00;100.00;99774.09;11324090;26;20448;-64
2024/04/16 08:20:25;;;;;;;1999.90;999.90;;;;;;;8.03;100.00;99796.50;11314135;26;20013;-64
2024/04/16 08:25:27;;;;;;;1999.90;999.90;;;;;;;7.78;100.00;99805.88;11286877;26;20337;-68
2024/04/16 08:30:30;;;;;;;1999.90;999.90;;;;;;;7.95;100.00;99820.47;11292911;26;19999;-68
2024/04/16 08:35:33;;;;;;;1999.90;999.90;;;;;;;8.14;100.00;99833.16;11273172;26;19999;-69
2024/04/16 08:40:39;;;;;;;1999.90;999.90;;;;;;;8.38;100.00;99829.94;11333341;26;19999;-67
2024/04/16 08:45:44;;;;;;;1999.90;999.90;;;;;;;8.97;100.00;99839.25;11328096;26;20013;-63
2024/04/16 08:50:46;;;;;;;1999.90;999.90;;;;;;;9.80;100.00;99816.19;11303872;26;20039;-67
2024/04/16 08:55:49;;;;;;;1999.90;999.90;;;;;;;10.54;100.00;99826.69;11323123;26;20106;-65
2024/04/16 09:00:57;;;;;;;1999.90;999.90;;;;;;;9.67;100.00;99834.50;11293756;26;20014;-66
2024/04/16 09:06:00;;;;;;;1999.90;999.90;;;;;;;10.54;100.00;99854.63;11290466;26;20072;-65
2024/04/16 09:11:03;;;;;;;1999.90;999.90;;;;;;;9.74;100.00;99868.91;11288733;26;20338;-65
2024/04/16 09:16:05;;;;;;;1999.90;999.90;;;;;;;9.53;100.00;99896.47;11307727;26;19999;-66
2024/04/16 09:21:08;;;;;;;1999.90;999.90;;;;;;;9.09;100.00;99916.78;11289539;26;20032;-67
2024/04/16 09:26:14;;;;;;;1999.90;999.90;;;;;;;9.45;100.00;99930.97;11287701;26;19999;-65
2024/04/16 09:31:17;;;;;;;1999.90;999.90;;;;;;;9.85;100.00;99931.75;11289223;26;19999;-66
2024/04/16 09:36:20;;;;;;;1999.90;999.90;;;;;;;10.40;100.00;99950.63;11289699;26;19999;-65
2024/04/16 09:41:22;;;;;;;1999.90;999.90;;;;;;;10.31;100.00;99948.66;11289330;26;20027;-65
2024/04/16 09:46:25;;;;;;;1999.90;999.90;;;;;;;10.17;100.00;99956.59;11288801;26;20482;-67
2024/04/16 09:51:28;;;;;;;1999.90;999.90;;;;;;;11.26;100.00;99974.25;11288608;26;20007;-65
2024/04/16 09:56:34;;;;;;;1999.90;999.90;;;;;;;11.47;99.49;99971.84;11287853;26;20007;-64
2024/04/16 10:01:37;;;;;;;1999.90;999.90;;;;;;;11.24;93.03;99973.53;11287141;26;20346;-65
2024/04/16 10:06:40;;;;;;;1999.90;999.90;;;;;;;12.01;92.51;99996.69;11287091;26;19999;-65
2024/04/16 10:11:44;;;;;;;1999.90;999.90;;;;;;;11.03;93.15;100004.72;11286573;26;20006;-65
2024/04/16 10:16:50;;;;;;;1999.90;999.90;;;;;;;10.17;96.55;100022.88;11286985;26;20348;-65
2024/04/16 10:21:53;;;;;;;1999.90;999.90;;;;;;;10.19;98.67;100041.91;11288316;26;20010;-65
2024/04/16 10:26:58;;;;;;;1999.90;999.90;;;;;;;9.71;100.00;100046.00;11288774;26;19998;-66
2024/04/16 10:32:02;;;;;;;1999.90;999.90;;;;;;;10.14;100.00;100051.84;11287735;26;19999;-66
2024/04/16 10:37:07;;;;;;;1999.90;999.90;;;;;;;11.43;100.00;100036.75;11287521;26;20446;-65
2024/04/16 10:42:10;;;;;;;1999.90;999.90;;;;;;;10.83;96.32;100046.28;11287214;26;19999;-66
2024/04/16 10:47:13;;;;;;;1999.90;999.90;;;;;;;10.53;99.68;100062.34;11287389;26;20423;-66
2024/04/16 10:52:19;;;;;;;1999.90;999.90;;;;;;;11.34;96.50;100063.63;11285278;26;20013;-66
2024/04/16 10:57:22;;;;;;;1999.90;999.90;;;;;;;9.95;100.00;100119.38;11285583;26;19999;-67
2024/04/16 11:02:26;;;;;;;1999.90;999.90;;;;;;;9.13;100.00;100108.91;11285300;26;20027;-66
2024/04/16 11:07:28;;;;;;;1999.90;999.90;;;;;;;9.21;100.00;100124.09;11285271;26;20349;-65
2024/04/16 11:12:31;;;;;;;1999.90;999.90;;;;;;;10.12;100.00;100132.19;11286522;26;20030;-66
2024/04/16 11:17:33;;;;;;;1999.90;999.90;;;;;;;11.74;100.00;100133.31;11284508;26;20363;-66
2024/04/16 11:22:36;;;;;;;1999.90;999.90;;;;;;;11.40;100.00;100152.31;11284622;26;19995;-66
2024/04/16 11:27:39;;;;;;;1999.90;999.90;;;;;;;10.39;100.00;100160.94;11284402;26;20007;-66
2024/04/16 11:32:42;;;;;;;1999.90;999.90;;;;;;;11.98;100.00;100151.69;11286278;26;19999;-66
2024/04/16 11:37:44;;;;;;;1999.90;999.90;;;;;;;13.52;98.74;100148.66;11285915;26;19998;-66
2024/04/16 11:42:47;;;;;;;1999.90;999.90;;;;;;;11.56;99.69;100169.56;11284272;26;20007;-66
2024/04/16 11:47:50;;;;;;;1999.90;999.90;;;;;;;12.24;97.16;100176.84;11285587;26;20450;-66
2024/04/16 11:52:52;;;;;;;1999.90;999.90;;;;;;;12.57;89.67;100166.53;11285543;26;19999;-66
2024/04/16 11:57:55;;;;;;;1999.90;999.90;;;;;;;13.50;87.28;100173.38;11285803;26;20377;-66
2024/04/16 12:02:57;;;;;;;1999.90;999.90;;;;;;;13.10;90.70;100177.34;11285265;26;19999;-66
2024/04/16 12:08:00;;;;;;;1999.90;999.90;;;;;;;14.73;84.23;100187.06;11283315;26;20009;-66
2024/04/16 12:13:02;;;;;;;1999.90;999.90;;;;;;;15.58;77.63;100169.19;11282760;26;20001;-67
2024/04/16 12:18:05;;;;;;;1999.90;999.90;;;;;;;16.27;76.96;100178.91;11284101;26;19999;-66
2024/04/16 12:23:08;;;;;;;1999.90;999.90;;;;;;;14.46;72.02;100191.00;11284369;26;20326;-66
2024/04/16 12:28:10;;;;;;;1999.90;999.90;;;;;;;13.53;76.02;100196.81;11284504;26;20013;-66
2024/04/16 12:33:13;;;;;;;1999.90;999.90;;;;;;;14.18;81.01;100210.06;11282409;26;20006;-66
2024/04/16 12:38:18;;;;;;;1999.90;999.90;;;;;;;17.05;72.57;100207.00;11284211;26;20387;-66
2024/04/16 12:43:21;;;;;;;1999.90;999.90;;;;;;;15.73;70.49;100230.34;11283705;26;19998;-67
2024/04/16 12:48:26;;;;;;;1999.90;999.90;;;;;;;15.42;69.25;100236.50;11283360;26;20453;-66
2024/04/16 12:53:28;;;;;;;1999.90;999.90;;;;;;;13.83;72.42;100256.69;11283561;26;20002;-66
2024/04/16 12:58:31;;;;;;;1999.90;999.90;;;;;;;12.17;89.50;100282.34;11281549;26;20092;-66
2024/04/16 13:03:33;;;;;;;1999.90;999.90;;;;;;;11.90;96.05;100292.09;11282845;26;20007;-67
2024/04/16 13:08:37;;;;;;;1999.90;999.90;;;;;;;12.77;94.06;100283.22;11283213;26;20373;-67
2024/04/16 13:13:39;;;;;;;1999.90;999.90;;;;;;;14.84;88.97;100281.88;11282391;26;20004;-67
2024/04/16 13:18:42;;;;;;;1999.90;999.90;;;;;;;13.87;86.64;100283.56;11282472;26;20076;-67
2024/04/16 13:23:45;;;;;;;1999.90;999.90;;;;;;;13.10;87.04;100285.09;11282412;26;20010;-66
2024/04/16 13:28:47;;;;;;;1999.90;999.90;;;;;;;10.37;95.52;100314.63;11283075;26;19999;-67
2024/04/16 13:33:50;;;;;;;1999.90;999.90;;;;;;;11.25;99.22;100305.38;11289827;26;20017;-67
2024/04/16 13:38:53;;;;;;;1999.90;999.90;;;;;;;11.73;99.65;100309.94;11289346;26;19999;-67
2024/04/16 13:43:55;;;;;;;1999.90;999.90;;;;;;;10.89;100.00;100322.59;11289606;26;20030;-67
2024/04/16 13:48:58;;;;;;;1999.90;999.90;;;;;;;10.90;100.00;100319.88;11289039;26;20014;-66
2024/04/16 13:54:00;;;;;;;1999.90;999.90;;;;;;;13.63;97.49;100326.66;11288902;26;20421;-67
2024/04/16 13:59:03;;;;;;;1999.90;999.90;;;;;;;14.15;88.85;100323.50;11287003;26;19999;-67
2024/04/16 14:04:05;;;;;;;1999.90;999.90;;;;;;;14.50;84.83;100332.03;11288598;26;19998;-67
2024/04/16 14:09:08;;;;;;;1999.90;999.90;;;;;;;13.33;79.96;100332.47;11286999;26;20013;-68
2024/04/16 14:14:10;;;;;;;1999.90;999.90;;;;;;;12.56;85.24;100340.81;11288320;26;20329;-68
2024/04/16 14:19:13;;;;;;;1999.90;999.90;;;;;;;11.93;86.89;100358.44;11288245;26;19999;-68
2024/04/16 14:24:21;;;;;;;1999.90;999.90;;;;;;;10.43;93.09;100368.31;11257473;26;20020;-68
2024/04/16 14:29:26;;;;;;;1999.90;999.90;;;;;;;11.24;98.88;100374.44;11286546;26;19999;-67
2024/04/16 14:34:29;;;;;;;1999.90;999.90;;;;;;;11.99;95.70;100373.75;11286566;26;20092;-68
2024/04/16 14:39:32;;;;;;;1999.90;999.90;;;;;;;13.27;92.82;100373.19;11255790;26;20071;-68
2024/04/16 14:44:34;;;;;;;1999.90;999.90;;;;;;;13.65;84.22;100372.09;11286053;26;20454;-68
2024/04/16 14:49:37;;;;;;;1999.90;999.90;;;;;;;14.64;77.81;100374.88;11287985;26;19998;-68
2024/04/16 14:54:39;;;;;;;1999.90;999.90;;;;;;;12.77;83.41;100390.94;11288651;26;20085;-68
2024/04/16 14:59:42;;;;;;;1999.90;999.90;;;;;;;12.34;91.21;100405.38;11287289;26;20010;-67
2024/04/16 15:04:45;;;;;;;1999.90;999.90;;;;;;;11.89;95.88;100407.63;11287057;26;20048;-68
2024/04/16 15:09:48;;;;;;;1999.90;999.90;;;;;;;12.20;98.89;100419.44;11287117;26;19998;-68
2024/04/16 15:14:50;;;;;;;1999.90;999.90;;;;;;;12.01;100.00;100432.19;11286792;26;20369;-68
2024/04/16 15:19:53;;;;;;;1999.90;999.90;;;;;;;11.02;100.00;100437.91;11286518;26;20077;-68
2024/04/16 15:24:55;;;;;;;1999.90;999.90;;;;;;;11.05;100.00;100449.00;11286200;26;19999;-68
2024/04/16 15:29:58;;;;;;;1999.90;999.90;;;;;;;10.13;100.00;100473.09;11286522;26;20484;-68
2024/04/16 15:35:00;;;;;;;1999.90;999.90;;;;;;;10.13;100.00;100479.16;11284438;26;19999;-68
2024/04/16 15:40:03;;;;;;;1999.90;999.90;;;;;;;10.78;100.00;100472.59;11286111;26;19998;-67
2024/04/16 15:45:19;;;;;;;1999.90;999.90;;;;;;;11.35;100.00;100479.41;11285847;26;20007;-67
2024/04/16 15:50:21;;;;;;;1999.90;999.90;;;;;;;11.34;100.00;100478.53;11285215;26;20455;-67
2024/04/16 15:55:24;;;;;;;1999.90;999.90;;;;;;;10.84;100.00;100497.53;11284141;26;19999;-67
2024/04/16 16:00:27;;;;;;;1999.90;999.90;;;;;;;10.44;100.00;100524.44;11285326;26;20366;-67
2024/04/16 16:05:30;;;;;;;1999.90;999.90;;;;;;;9.63;100.00;100536.13;11284745;26;19999;-68
2024/04/16 16:10:33;;;;;;;1999.90;999.90;;;;;;;9.53;100.00;100548.06;11284597;26;20005;-67
2024/04/16 16:15:35;;;;;;;1999.90;999.90;;;;;;;9.42;100.00;100547.81;11283214;26;20007;-68
2024/04/16 16:20:38;;;;;;;1999.90;999.90;;;;;;;10.26;100.00;100541.22;11285441;26;20009;-67
2024/04/16 16:25:41;;;;;;;1999.90;999.90;;;;;;;9.97;100.00;100549.00;11284340;26;20007;-68
2024/04/16 16:30:45;;;;;;;1999.90;999.90;;;;;;;9.83;100.00;100557.66;11284442;26;20014;-68
2024/04/16 16:35:47;;;;;;;1999.90;999.90;;;;;;;9.64;100.00;100566.56;11281996;26;19999;-68
2024/04/16 16:40:50;;;;;;;1999.90;999.90;;;;;;;9.86;100.00;100568.78;11284035;26;20013;-67
2024/04/16 16:45:53;;;;;;;1999.90;999.90;;;;;;;9.76;100.00;100575.47;11283310;26;19999;-68
2024/04/16 16:50:56;;;;;;;1999.90;999.90;;;;;;;9.80;100.00;100587.44;11283679;26;20333;-68
2024/04/16 16:55:58;;;;;;;1999.90;999.90;;;;;;;9.56;100.00;100591.47;11283177;26;20009;-68
2024/04/16 17:01:01;;;;;;;1999.90;999.90;;;;;;;9.96;100.00;100597.03;11283344;26;19999;-68
2024/04/16 17:06:04;;;;;;;1999.90;999.90;;;;;;;9.94;100.00;100593.66;11288353;26;20009;-68
2024/04/16 17:11:06;;;;;;;1999.90;999.90;;;;;;;9.83;100.00;100596.88;11289948;26;20008;-68
2024/04/16 17:16:09;;;;;;;1999.90;999.90;;;;;;;9.89;100.00;100606.16;11290161;26;19999;-68
2024/04/16 17:21:11;;;;;;;1999.90;999.90;;;;;;;9.86;100.00;100604.56;11289919;26;19999;-69
2024/04/16 17:26:14;;;;;;;1999.90;999.90;;;;;;;9.85;100.00;100602.84;11289872;26;20034;-68
2024/04/16 17:31:17;;;;;;;1999.90;999.90;;;;;;;9.78;100.00;100601.53;11289894;26;20017;-68
2024/04/16 17:36:19;;;;;;;1999.90;999.90;;;;;;;9.44;100.00;100624.34;11289568;26;19999;-68
2024/04/16 17:41:22;;;;;;;1999.90;999.90;;;;;;;9.59;100.00;100631.31;11289042;26;20369;-68
2024/04/16 17:46:24;;;;;;;1999.90;999.90;;;;;;;9.11;100.00;100628.72;11287514;26;20009;-69
2024/04/16 17:51:26;;;;;;;1999.90;999.90;;;;;;;9.54;100.00;100635.13;11289348;26;20048;-68
2024/04/16 17:56:30;;;;;;;1999.90;999.90;;;;;;;9.40;100.00;100644.56;11287180;26;19999;-68
2024/04/16 18:01:33;;;;;;;1999.90;999.90;;;;;;;9.27;100.00;100654.00;11288677;26;20013;-69
2024/04/16 18:06:38;;;;;;;1999.90;999.90;;;;;;;9.45;100.00;100663.47;11288908;26;20419;-68
2024/04/16 18:11:41;;;;;;;1999.90;999.90;;;;;;;9.43;100.00;100670.56;11288268;26;19999;-68
2024/04/16 18:16:43;;;;;;;1999.90;999.90;;;;;;;9.33;100.00;100677.19;11287797;26;20017;-69
2024/04/16 18:21:46;;;;;;;1999.90;999.90;;;;;;;9.46;100.00;100691.28;11288931;26;19999;-68
2024/04/16 18:26:50;;;;;;;1999.90;999.90;;;;;;;9.53;100.00;100697.03;11288136;26;20013;-67
2024/04/16 18:31:54;;;;;;;1999.90;999.90;;;;;;;9.22;100.00;100701.28;11287422;26;20075;-68
2024/04/16 18:36:56;;;;;;;1999.90;999.90;;;;;;;9.19;100.00;100704.03;11287791;26;20411;-68
2024/04/16 18:41:59;;;;;;;1999.90;999.90;;;;;;;9.00;100.00;100716.41;11318407;21;20449;-65
2024/04/16 18:47:02;;;;;;;1999.90;999.90;;;;;;;8.77;100.00;100720.19;11287375;26;20403;-65
2024/04/16 18:52:04;;;;;;;1999.90;999.90;;;;;;;8.41;100.00;100742.81;11287209;26;19999;-65
2024/04/16 18:57:10;;;;;;;1999.90;999.90;;;;;;;8.54;100.00;100741.31;11285487;26;20075;-65
2024/04/16 19:02:13;;;;;;;1999.90;999.90;;;;;;;8.23;100.00;100754.97;11287080;26;19999;-65
2024/04/16 19:07:18;;;;;;;1999.90;999.90;;;;;;;8.26;100.00;100767.88;11287068;26;20040;-65
2024/04/16 19:12:21;;;;;;;1999.90;999.90;;;;;;;8.13;100.00;100775.44;11286718;26;20006;-65
2024/04/16 19:17:23;;;;;;;1999.90;999.90;;;;;;;7.97;100.00;100785.75;11286855;26;20014;-65
2024/04/16 19:22:26;;;;;;;1999.90;999.90;;;;;;;8.02;100.00;100800.31;11286574;26;19999;-65
2024/04/16 19:27:28;;;;;;;1999.90;999.90;;;;;;;8.12;100.00;100806.78;11283043;26;20084;-65
2024/04/16 19:32:31;;;;;;;1999.90;999.90;;;;;;;7.93;100.00;100809.41;11286276;26;20476;-65
2024/04/16 19:37:33;;;;;;;1999.90;999.90;;;;;;;7.78;100.00;100822.25;11286359;26;19999;-65
2024/04/16 19:42:36;;;;;;;1999.90;999.90;;;;;;;7.69;100.00;100819.22;11284260;26;20445;-65
2024/04/16 19:47:38;;;;;;;1999.90;999.90;;;;;;;7.57;100.00;100837.06;11284127;26;20013;-65
2024/04/16 19:52:41;;;;;;;1999.90;999.90;;;;;;;7.37;100.00;100837.94;11285609;26;20468;-65
2024/04/16 19:57:44;;;;;;;1999.90;999.90;;;;;;;7.23;100.00;100861.97;11283764;26;19994;-65
2024/04/16 20:02:46;;;;;;;1999.90;999.90;;;;;;;7.35;100.00;100858.00;11285549;26;20011;-65
2024/04/16 20:07:50;;;;;;;1999.90;999.90;;;;;;;7.04;100.00;100867.13;11285403;26;20461;-65
2024/04/16 20:12:53;;;;;;;1999.90;999.90;;;;;;;7.34;100.00;100876.31;11283421;26;20446;-65
2024/04/16 20:17:55;;;;;;;1999.90;999.90;;;;;;;7.47;100.00;100881.84;11285048;26;20012;-65
2024/04/16 20:22:58;;;;;;;1999.90;999.90;;;;;;;7.20;100.00;100887.31;11284579;26;20350;-65
2024/04/16 20:28:01;;;;;;;1999.90;999.90;;;;;;;7.37;100.00;100892.66;11284729;26;20345;-65
2024/04/16 20:33:03;;;;;;;1999.90;999.90;;;;;;;7.10;100.00;100912.03;11284216;26;20078;-65
2024/04/16 20:38:06;;;;;;;1999.90;999.90;;;;;;;7.07;100.00;100913.00;11286890;26;20442;-65
2024/04/16 20:43:09;;;;;;;1999.90;999.90;;;;;;;6.92;100.00;100918.84;11297877;26;20005;-65
2024/04/16 20:48:11;;;;;;;1999.90;999.90;;;;;;;6.90;100.00;100926.69;11299365;26;20031;-65
2024/04/16 20:53:14;;;;;;;1999.90;999.90;;;;;;;6.78;100.00;100925.44;11299487;26;20010;-65
2024/04/16 20:58:16;;;;;;;1999.90;999.90;;;;;;;6.90;100.00;100929.31;11297762;26;20333;-65
2024/04/16 21:03:19;;;;;;;1999.90;999.90;;;;;;;6.79;100.00;100931.47;11299185;26;20089;-65
2024/04/16 21:08:21;;;;;;;1999.90;999.90;;;;;;;6.96;100.00;100939.47;11297064;26;20034;-65
2024/04/16 21:13:24;;;;;;;1999.90;999.90;;;;;;;6.85;100.00;100942.50;11298249;26;20014;-65
2024/04/16 21:18:27;;;;;;;1999.90;999.90;;;;;;;6.76;100.00;100944.59;11298756;26;19999;-65
2024/04/16 21:23:29;;;;;;;1999.90;999.90;;;;;;;6.67;100.00;100943.22;11298478;26;20007;-65
2024/04/16 21:28:32;;;;;;;1999.90;999.90;;;;;;;6.46;100.00;100950.94;11298370;26;19999;-65
2024/04/16 21:33:34;;;;;;;1999.90;999.90;;;;;;;6.43;100.00;100951.03;11297693;26;19999;-65
2024/04/16 21:38:37;;;;;;;1999.90;999.90;;;;;;;6.49;100.00;100957.78;11297705;26;20031;-65
2024/04/16 21:43:39;;;;;;;1999.90;999.90;;;;;;;6.38;100.00;100960.78;11297753;26;20011;-65
2024/04/16 21:48:42;;;;;;;1999.90;999.90;;;;;;;6.16;100.00;100968.53;11296617;26;20446;-65
2024/04/16 21:53:45;;;;;;;1999.90;999.90;;;;;;;6.24;100.00;100971.69;11288399;26;20353;-65
2024/04/16 21:58:48;;;;;;;1999.90;999.90;;;;;;;6.20;100.00;100964.88;11287648;26;20011;-65